createdAt,value
2022-11-27T00:02:01.840Z,101179.66
2022-11-27T00:07:03.517Z,101177.44
2022-11-27T00:12:05.464Z,101173.59
2022-11-27T00:17:07.143Z,101155.69
2022-11-27T00:22:08.812Z,101163.44
2022-11-27T00:27:11.471Z,101154.91
2022-11-27T00:32:13.291Z,101147.44
2022-11-27T00:37:15.164Z,101156.50
2022-11-27T00:42:16.817Z,101156.22
2022-11-27T00:47:18.508Z,101156.94
2022-11-27T00:52:20.343Z,101157.13
2022-11-27T00:57:22.018Z,101139.22
2022-11-27T01:02:23.751Z,101149.88
2022-11-27T01:07:26.671Z,101144.72
2022-11-27T01:12:28.367Z,101134.47
2022-11-27T01:17:30.054Z,101127.38
2022-11-27T01:22:32.888Z,101119.34
2022-11-27T01:27:34.543Z,101107.84
2022-11-27T01:32:36.202Z,101105.53
2022-11-27T01:37:37.883Z,101106.53
2022-11-27T01:42:39.617Z,101090.97
2022-11-27T01:48:00.038Z,101080.28
2022-11-27T01:53:09.671Z,101080.44
2022-11-27T01:58:15.309Z,101059.16
2022-11-27T02:03:17.071Z,101058.22
2022-11-27T02:08:19.118Z,101052.72
2022-11-27T02:13:25.408Z,101042.38
2022-11-27T02:18:43.817Z,101038.59
2022-11-27T02:24:09.845Z,101027.69
2022-11-27T02:29:13.690Z,101041.19
2022-11-27T02:34:25.609Z,101041.13
2022-11-27T02:39:35.040Z,101037.69
2022-11-27T02:44:43.601Z,101041.78
2022-11-27T02:49:46.578Z,101030.50
2022-11-27T02:54:51.967Z,101045.47
2022-11-27T02:59:56.087Z,101053.44
2022-11-27T03:05:02.374Z,101046.75
2022-11-27T03:10:12.676Z,101058.31
2022-11-27T03:15:14.625Z,101054.09
2022-11-27T03:20:22.327Z,101049.78
2022-11-27T03:25:24.855Z,101046.28
2022-11-27T03:30:27.009Z,101048.38
2022-11-27T03:35:29.594Z,101051.13
2022-11-27T03:40:50.399Z,101056.22
2022-11-27T03:46:05.526Z,101045.41
2022-11-27T03:51:16.307Z,101036.28
2022-11-27T03:56:38.547Z,101039.84
2022-11-27T04:01:40.826Z,101032.47
2022-11-27T04:06:42.559Z,101034.69
2022-11-27T04:11:44.256Z,101037.00
2022-11-27T04:16:45.932Z,101036.56
2022-11-27T04:21:47.607Z,101037.66
2022-11-27T04:26:49.350Z,101042.09
2022-11-27T04:31:51.032Z,101037.19
2022-11-27T04:36:52.728Z,101044.59
2022-11-27T04:41:54.436Z,101051.19
2022-11-27T04:46:56.187Z,101042.56
2022-11-27T04:51:57.969Z,101046.41
2022-11-27T04:56:59.637Z,101039.66
2022-11-27T05:02:01.359Z,101034.50
2022-11-27T05:07:03.504Z,101042.56
2022-11-27T05:12:05.377Z,101032.94
2022-11-27T05:17:07.182Z,101033.19
2022-11-27T05:22:08.851Z,101037.00
2022-11-27T05:27:10.572Z,101054.97
2022-11-27T05:32:12.240Z,101049.38
2022-11-27T05:37:19.204Z,101051.47
2022-11-27T05:42:21.474Z,101052.59
2022-11-27T05:47:23.248Z,101045.66
2022-11-27T05:52:24.917Z,101050.75
2022-11-27T05:57:26.667Z,101050.53
2022-11-27T06:02:29.682Z,101045.22
2022-11-27T06:07:32.069Z,101033.06
2022-11-27T06:12:33.785Z,101030.09
2022-11-27T06:17:35.446Z,101036.28
2022-11-27T06:22:37.115Z,101026.22
2022-11-27T06:27:38.997Z,101023.41
2022-11-27T06:32:40.676Z,101027.47
2022-11-27T06:37:42.380Z,101025.53
2022-11-27T06:42:44.043Z,101014.84
2022-11-27T06:47:45.720Z,101019.00
2022-11-27T06:52:47.380Z,101001.13
2022-11-27T06:57:51.339Z,100994.34
2022-11-27T07:02:54.875Z,101006.16
2022-11-27T07:07:58.317Z,101007.56
2022-11-27T07:13:00.020Z,101009.91
2022-11-27T07:18:02.343Z,101002.28
2022-11-27T07:23:04.004Z,101013.25
2022-11-27T07:28:05.683Z,101012.03
2022-11-27T07:33:07.348Z,101019.41
2022-11-27T07:38:09.013Z,101006.34
2022-11-27T07:43:10.684Z,101005.63
2022-11-27T07:48:12.358Z,100992.94
2022-11-27T07:53:14.084Z,100983.13
2022-11-27T07:58:15.859Z,100978.16
2022-11-27T08:03:18.650Z,100975.81
2022-11-27T08:08:20.346Z,100977.47
2022-11-27T08:13:22.041Z,100961.88
2022-11-27T08:18:23.715Z,100940.91
2022-11-27T08:23:25.376Z,100944.31
2022-11-27T08:28:27.063Z,100949.63
2022-11-27T08:33:29.360Z,100951.00
2022-11-27T08:38:31.110Z,100942.53
2022-11-27T08:43:33.362Z,100947.34
2022-11-27T08:48:35.132Z,100945.38
2022-11-27T08:53:37.857Z,100942.88
2022-11-27T08:58:41.212Z,100944.41
2022-11-27T09:03:43.067Z,100954.44
2022-11-27T09:08:45.707Z,100952.25
2022-11-27T09:13:48.083Z,100938.44
2022-11-27T09:18:51.751Z,100932.59
2022-11-27T09:23:55.536Z,100934.41
2022-11-27T09:28:58.605Z,100912.44
2022-11-27T09:34:00.271Z,100906.88
2022-11-27T09:39:03.660Z,100903.75
2022-11-27T09:44:39.740Z,100891.13
2022-11-27T09:49:45.809Z,100872.50
2022-11-27T09:55:02.764Z,100863.34
2022-11-27T10:00:19.014Z,100862.31
2022-11-27T10:05:43.617Z,100852.25
2022-11-27T10:11:15.551Z,100839.66
2022-11-27T10:17:00.535Z,100837.97
2022-11-27T10:22:20.966Z,100825.06
2022-11-27T10:27:30.219Z,100823.06
2022-11-27T10:38:06.560Z,100815.34
2022-11-27T10:43:11.903Z,100794.53
2022-11-27T10:48:14.564Z,100789.66
2022-11-27T10:53:30.954Z,100779.34
2022-11-27T10:58:52.899Z,100777.06
2022-11-27T11:04:31.274Z,100760.34
2022-11-27T11:09:32.983Z,100764.88
2022-11-27T11:14:34.676Z,100772.44
2022-11-27T11:19:39.164Z,100756.00
2022-11-27T11:24:46.847Z,100756.91
2022-11-27T11:29:51.355Z,100764.50
2022-11-27T11:35:08.525Z,100768.47
2022-11-27T11:40:16.073Z,100770.38
2022-11-27T11:45:21.155Z,100759.53
2022-11-27T11:50:28.883Z,100760.22
2022-11-27T11:55:59.596Z,100748.28
2022-11-27T12:01:26.488Z,100736.31
2022-11-27T12:06:37.842Z,100731.06
2022-11-27T12:11:45.292Z,100716.13
2022-11-27T12:17:04.531Z,100727.88
2022-11-27T12:22:45.016Z,100718.44
2022-11-27T12:27:57.635Z,100712.09
2022-11-27T12:33:05.475Z,100701.59
2022-11-27T12:38:35.139Z,100698.03
2022-11-27T12:43:47.894Z,100687.94
2022-11-27T12:49:14.166Z,100670.72
2022-11-27T12:54:28.544Z,100668.47
2022-11-27T12:59:43.564Z,100672.66
2022-11-27T13:05:24.090Z,100651.53
2022-11-27T13:10:38.277Z,100637.53
2022-11-27T13:15:52.331Z,100623.22
2022-11-27T13:20:55.328Z,100620.75
2022-11-27T13:25:58.647Z,100601.69
2022-11-27T13:31:01.453Z,100606.44
2022-11-27T13:36:04.621Z,100596.75
2022-11-27T13:41:07.088Z,100590.94
2022-11-27T13:46:20.143Z,100586.97
2022-11-27T13:51:28.653Z,100571.09
2022-11-27T13:56:31.385Z,100575.13
2022-11-27T14:01:33.190Z,100583.09
2022-11-27T14:06:35.327Z,100587.72
2022-11-27T14:11:44.320Z,100582.13
2022-11-27T14:16:57.642Z,100573.53
2022-11-27T14:21:59.548Z,100566.81
2022-11-27T14:27:06.995Z,100570.19
2022-11-27T14:32:12.565Z,100563.44
2022-11-27T14:37:26.296Z,100563.16
2022-11-27T14:42:30.211Z,100554.47
2022-11-27T14:47:34.915Z,100561.00
2022-11-27T14:52:36.967Z,100552.63
2022-11-27T14:57:38.814Z,100556.06
2022-11-27T15:02:40.651Z,100557.00
2022-11-27T15:07:47.902Z,100558.63
2022-11-27T15:12:52.320Z,100553.63
2022-11-27T15:18:00.199Z,100540.78
2022-11-27T15:23:02.793Z,100536.03
2022-11-27T15:28:23.725Z,100534.97
2022-11-27T15:33:33.460Z,100543.31
2022-11-27T15:38:35.184Z,100538.69
2022-11-27T15:43:36.855Z,100525.47
2022-11-27T15:48:38.564Z,100505.59
2022-11-27T15:53:40.345Z,100504.13
2022-11-27T15:58:42.450Z,100500.03
2022-11-27T16:03:44.132Z,100498.72
2022-11-27T16:08:45.817Z,100483.88
2022-11-27T16:13:47.479Z,100481.69
2022-11-27T16:18:49.159Z,100479.78
2022-11-27T16:23:50.859Z,100480.72
2022-11-27T16:28:52.558Z,100480.78
2022-11-27T16:33:55.190Z,100481.06
2022-11-27T16:38:59.416Z,100484.81
2022-11-27T16:44:02.306Z,100481.31
2022-11-27T16:49:06.534Z,100481.66
2022-11-27T16:54:11.424Z,100478.84
2022-11-27T16:59:15.649Z,100480.25
2022-11-27T17:04:19.939Z,100463.94
2022-11-27T17:09:24.720Z,100462.94
2022-11-27T17:14:27.505Z,100456.63
2022-11-27T17:19:31.697Z,100452.66
2022-11-27T17:24:35.846Z,100437.50
2022-11-27T17:29:39.395Z,100436.84
2022-11-27T17:34:41.429Z,100433.81
2022-11-27T17:39:44.383Z,100428.66
2022-11-27T17:44:47.458Z,100429.31
2022-11-27T17:49:49.216Z,100418.59
2022-11-27T17:54:50.975Z,100404.72
2022-11-27T17:59:53.007Z,100408.25
2022-11-27T18:04:54.753Z,100398.69
2022-11-27T18:09:57.197Z,100398.41
2022-11-27T18:15:01.436Z,100387.50
2022-11-27T18:20:04.798Z,100384.41
2022-11-27T18:25:06.663Z,100359.28
2022-11-27T18:30:09.163Z,100346.28
2022-11-27T18:35:11.017Z,100344.66
2022-11-27T18:40:13.010Z,100345.72
2022-11-27T18:45:31.708Z,100342.59
2022-11-27T18:50:35.624Z,100329.56
2022-11-27T18:55:37.618Z,100319.75
2022-11-27T19:00:39.482Z,100332.69
2022-11-27T19:05:41.160Z,100333.72
2022-11-27T19:10:42.861Z,100344.59
2022-11-27T19:15:46.664Z,100349.78
2022-11-27T19:20:48.400Z,100327.97
2022-11-27T19:25:51.105Z,100342.03
2022-11-27T19:30:52.916Z,100337.22
2022-11-27T19:36:00.146Z,100342.13
2022-11-27T19:41:04.346Z,100334.78
2022-11-27T19:46:19.909Z,100334.94
2022-11-27T19:51:21.789Z,100327.84
2022-11-27T19:56:27.069Z,100314.38
2022-11-27T20:01:29.323Z,100316.06
2022-11-27T20:06:31.279Z,100314.47
2022-11-27T20:11:35.201Z,100299.44
2022-11-27T20:16:38.833Z,100299.63
2022-11-27T20:21:40.670Z,100288.75
2022-11-27T20:26:43.363Z,100291.78
2022-11-27T20:31:45.593Z,100279.22
2022-11-27T20:36:48.075Z,100284.50
2022-11-27T20:41:51.422Z,100276.38
2022-11-27T20:46:53.134Z,100273.63
2022-11-27T20:51:55.425Z,100280.19
2022-11-27T20:56:57.682Z,100270.44
2022-11-27T21:02:01.576Z,100261.19
2022-11-27T21:07:03.783Z,100262.97
2022-11-27T21:12:06.449Z,100254.97
2022-11-27T21:17:08.474Z,100250.25
2022-11-27T21:22:10.323Z,100251.91
2022-11-27T21:27:12.235Z,100247.53
2022-11-27T21:32:14.375Z,100242.84
2022-11-27T21:37:16.340Z,100240.69
2022-11-27T21:42:18.708Z,100227.53
2022-11-27T21:47:20.473Z,100218.38
2022-11-27T21:52:22.161Z,100218.09
2022-11-27T21:57:24.036Z,100206.13
2022-11-27T22:02:25.865Z,100202.84
2022-11-27T22:07:27.626Z,100197.84
2022-11-27T22:12:30.497Z,100187.31
2022-11-27T22:17:33.123Z,100183.63
2022-11-27T22:22:34.902Z,100174.03
2022-11-27T22:27:37.298Z,100174.13
2022-11-27T22:32:38.994Z,100176.00
2022-11-27T22:37:40.760Z,100161.94
2022-11-27T22:42:42.426Z,100157.88
2022-11-27T22:47:44.120Z,100146.47
2022-11-27T22:52:45.850Z,100137.41
2022-11-27T22:57:47.847Z,100130.06
2022-11-27T23:02:49.623Z,100134.44
2022-11-27T23:07:51.443Z,100126.59
2022-11-27T23:12:53.302Z,100128.00
2022-11-27T23:17:54.978Z,100126.25
2022-11-27T23:22:56.673Z,100123.38
2022-11-27T23:27:58.346Z,100110.56
2022-11-27T23:33:00.123Z,100114.94
2022-11-27T23:38:01.845Z,100115.66
2022-11-27T23:43:03.517Z,100113.31
2022-11-27T23:48:05.286Z,100108.97
2022-11-27T23:53:07.021Z,100106.25
2022-11-27T23:58:08.690Z,100101.91
